Time;durP1;ratioP1;P1;durP2;ratioP2;P2;SDS_P1;SDS_P2;PMS_P1;PMS_P2;Temp;Humidity;BMP_temperature;BMP_pressure;BME280_temperature;BME280_humidity;BME280_pressure;Samples;Min_cycle;Max_cycle;Signal;HPM_P1;HPM_P2
2022/08/04 00:01:16;;;;;;;5.70;3.43;;;;;;;22.38;70.65;100183.19;5085795;28;21002;-72
2022/08/04 00:03:47;;;;;;;5.87;3.57;;;;;;;22.34;71.08;100179.22;5101400;28;20443;-72
2022/08/04 00:06:18;;;;;;;9.90;4.07;;;;;;;22.31;70.59;100182.41;5099722;28;20486;-71
2022/08/04 00:08:48;;;;;;;11.10;4.30;;;;;;;22.33;70.80;100188.47;5101727;28;20866;-71
2022/08/04 00:11:21;;;;;;;9.53;3.40;;;;;;;22.36;70.66;100179.88;5118604;28;20585;-72
2022/08/04 00:13:52;;;;;;;6.17;3.40;;;;;;;22.34;70.65;100184.69;5106806;28;20447;-72
2022/08/04 00:16:20;;;;;;;9.73;4.47;;;;;;;22.29;70.62;100184.50;5100852;28;20463;-72
2022/08/04 00:18:50;;;;;;;5.30;3.60;;;;;;;22.23;70.33;100180.75;5114598;28;20464;-72
2022/08/04 00:21:19;;;;;;;7.83;3.73;;;;;;;22.29;69.88;100184.50;5099549;28;20467;-71
2022/08/04 00:23:46;;;;;;;5.03;3.20;;;;;;;22.23;69.77;100180.75;5107041;28;20555;-71
2022/08/04 00:26:17;;;;;;;4.53;2.90;;;;;;;22.30;69.69;100178.00;5094838;28;20475;-71
2022/08/04 00:28:44;;;;;;;5.20;2.77;;;;;;;22.17;69.69;100179.72;5100059;28;20455;-71
2022/08/04 00:31:11;;;;;;;10.27;3.37;;;;;;;22.13;69.76;100173.06;5099196;28;20474;-71
2022/08/04 00:33:38;;;;;;;4.67;3.10;;;;;;;22.09;69.64;100176.44;5100293;28;20431;-71
2022/08/04 00:36:06;;;;;;;6.63;2.50;;;;;;;22.11;69.69;100169.69;5106831;28;20478;-70
2022/08/04 00:38:32;;;;;;;7.67;2.90;;;;;;;22.11;69.44;100166.16;5137840;27;20485;-70
2022/08/04 00:41:06;;;;;;;7.67;2.90;;;;;;;22.11;69.56;100163.44;5122437;27;20500;-71
2022/08/04 00:43:38;;;;;;;6.77;3.10;;;;;;;22.06;69.34;100164.06;5120252;28;20498;-71
2022/08/04 00:46:28;;;;;;;6.63;3.17;;;;;;;22.03;69.69;100169.97;5139989;27;20458;-71
2022/08/04 00:49:19;;;;;;;10.90;3.13;;;;;;;22.06;69.80;100168.69;5133205;27;20514;-71
2022/08/04 00:51:50;;;;;;;4.87;2.47;;;;;;;22.06;69.89;100166.81;5128457;27;20473;-70
2022/08/04 00:54:25;;;;;;;7.63;2.40;;;;;;;22.05;69.32;100178.75;5135560;27;20441;-70
2022/08/04 00:57:05;;;;;;;7.00;3.07;;;;;;;22.06;69.24;100168.69;5124433;27;20473;-70
2022/08/04 00:59:44;;;;;;;6.83;3.13;;;;;;;22.02;69.35;100170.19;5128842;27;20457;-70
2022/08/04 01:02:18;;;;;;;5.10;3.30;;;;;;;22.01;69.25;100169.34;5123868;27;20473;-71
2022/08/04 01:04:50;;;;;;;7.43;2.77;;;;;;;22.01;69.38;100172.06;5119884;27;20478;-70
2022/08/04 01:07:43;;;;;;;7.30;3.20;;;;;;;21.97;69.53;100171.66;5119370;28;20462;-73
2022/08/04 01:10:15;;;;;;;7.10;2.80;;;;;;;21.91;69.51;100171.72;5121528;27;20450;-71
2022/08/04 01:13:04;;;;;;;4.80;2.57;;;;;;;21.91;70.05;100164.38;5119102;28;20463;-70
2022/08/04 01:15:39;;;;;;;6.43;2.70;;;;;;;21.84;70.00;100171.75;5137438;27;20461;-72
2022/08/04 01:18:07;;;;;;;7.10;3.37;;;;;;;21.80;70.56;100165.91;5137968;27;20492;-71
2022/08/04 01:20:38;;;;;;;5.47;2.37;;;;;;;21.86;70.44;100164.19;5138661;27;20486;-72
2022/08/04 01:23:30;;;;;;;7.40;2.70;;;;;;;21.88;70.25;100164.00;5123167;27;20442;-70
2022/08/04 01:26:19;;;;;;;7.87;2.90;;;;;;;21.75;70.74;100159.44;5105940;28;20530;-70
2022/08/04 01:29:08;;;;;;;7.53;3.13;;;;;;;21.74;70.39;100155.06;5113978;27;20437;-70
2022/08/04 01:31:40;;;;;;;8.80;3.30;;;;;;;21.74;70.76;100161.31;5134218;27;20473;-71
2022/08/04 01:34:11;;;;;;;6.50;3.07;;;;;;;21.72;71.08;100151.72;5136721;27;20982;-72
2022/08/04 01:36:43;;;;;;;5.73;2.60;;;;;;;21.72;71.18;100155.25;5125141;27;20473;-73
2022/08/04 01:41:52;;;;;;;7.83;3.30;;;;;;;21.69;70.67;100149.44;5120354;27;20602;-72
2022/08/04 01:44:21;;;;;;;12.07;3.67;;;;;;;21.69;70.66;100150.25;5136385;27;20437;-72
2022/08/04 01:46:50;;;;;;;6.70;3.73;;;;;;;21.66;70.88;100141.69;5138711;28;20473;-72
2022/08/04 01:49:20;;;;;;;8.80;2.40;;;;;;;21.58;71.69;100145.50;5126541;28;20438;-72
2022/08/04 01:51:50;;;;;;;9.53;2.87;;;;;;;21.49;72.14;100142.19;5114005;28;20558;-72
2022/08/04 01:54:18;;;;;;;7.30;3.43;;;;;;;21.50;72.17;100143.84;5123181;28;20446;-72
2022/08/04 01:56:46;;;;;;;7.47;3.60;;;;;;;21.47;72.19;100146.16;5132634;28;20480;-72
2022/08/04 01:59:16;;;;;;;7.27;3.17;;;;;;;21.42;72.66;100144.91;5139292;28;20441;-71
2022/08/04 02:01:45;;;;;;;7.33;3.50;;;;;;;21.37;72.66;100133.81;5121984;28;21065;-73
2022/08/04 02:04:14;;;;;;;8.57;3.47;;;;;;;21.34;72.65;100127.97;5112404;28;20504;-73
2022/08/04 02:06:49;;;;;;;7.53;3.53;;;;;;;21.34;73.30;100133.41;5114494;28;20519;-72
2022/08/04 02:09:23;;;;;;;7.23;3.87;;;;;;;21.33;73.32;100137.16;5120938;28;20908;-72
2022/08/04 02:12:04;;;;;;;5.57;3.03;;;;;;;21.21;73.65;100126.97;5125975;28;20473;-74
2022/08/04 02:14:41;;;;;;;7.53;2.73;;;;;;;21.23;73.30;100124.88;5127635;28;20529;-75
2022/08/04 02:17:13;;;;;;;8.47;2.67;;;;;;;21.25;73.43;100127.38;5118478;28;20481;-73
2022/08/04 02:20:06;;;;;;;9.27;3.30;;;;;;;21.31;73.36;100125.69;5130357;28;20478;-72
2022/08/04 02:22:34;;;;;;;7.57;3.47;;;;;;;21.39;72.89;100123.56;5117449;28;20470;-71
2022/08/04 02:25:06;;;;;;;9.27;3.60;;;;;;;21.33;73.17;100118.97;5126520;28;20544;-72
2022/08/04 02:27:50;;;;;;;8.43;3.10;;;;;;;21.39;73.06;100120.00;5120293;28;20453;-71
2022/08/04 02:30:18;;;;;;;7.00;2.83;;;;;;;21.27;73.32;100114.41;5118325;28;20475;-70
2022/08/04 02:32:49;;;;;;;8.53;3.53;;;;;;;21.22;73.38;100114.22;5119293;28;20452;-71
2022/08/04 02:35:22;;;;;;;6.53;3.50;;;;;;;21.21;73.21;100107.09;5122307;27;20465;-70
2022/08/04 02:37:55;;;;;;;7.40;3.10;;;;;;;21.10;73.61;100105.88;5122561;28;20546;-70
2022/08/04 02:40:24;;;;;;;5.60;3.33;;;;;;;21.04;73.75;100104.03;5138647;27;20512;-72
2022/08/04 02:42:53;;;;;;;5.10;2.90;;;;;;;20.98;73.96;100097.53;5122774;28;21216;-71
2022/08/04 02:45:23;;;;;;;6.63;3.40;;;;;;;20.85;74.45;100095.69;5123343;27;20446;-71
2022/08/04 02:47:53;;;;;;;5.17;3.07;;;;;;;20.85;74.74;100098.41;5121954;28;20447;-71
2022/08/04 02:50:20;;;;;;;11.30;3.80;;;;;;;20.87;75.18;100095.47;5137024;27;20479;-71
2022/08/04 02:52:50;;;;;;;5.70;2.90;;;;;;;20.96;74.46;100091.47;5123414;27;20431;-70
2022/08/04 02:55:17;;;;;;;6.33;3.57;;;;;;;21.00;74.21;100087.28;5139838;27;20681;-70
2022/08/04 02:57:45;;;;;;;8.33;3.77;;;;;;;21.00;74.24;100084.56;5142117;27;20576;-69
2022/08/04 03:00:13;;;;;;;5.20;3.30;;;;;;;20.96;74.35;100087.94;5140944;27;20453;-70
2022/08/04 03:02:56;;;;;;;6.80;3.20;;;;;;;20.79;75.13;100080.22;5118399;27;20462;-69
2022/08/04 03:05:26;;;;;;;6.57;3.63;;;;;;;20.64;75.83;100083.19;5128348;27;20525;-69
2022/08/04 03:08:30;;;;;;;8.50;3.40;;;;;;;20.57;76.42;100074.19;5124871;27;20465;-69
2022/08/04 03:11:18;;;;;;;6.57;3.90;;;;;;;20.59;76.15;100085.66;5133008;27;20481;-70
2022/08/04 03:14:23;;;;;;;5.03;3.10;;;;;;;20.69;76.07;100075.25;5122110;27;20431;-70
2022/08/04 03:17:21;;;;;;;12.23;3.10;;;;;;;20.75;76.05;100070.00;5027471;27;20478;-69
2022/08/04 03:20:16;;;;;;;5.73;3.73;;;;;;;20.80;75.43;100072.94;5136805;27;20472;-70
2022/08/04 03:23:02;;;;;;;6.23;3.97;;;;;;;20.78;75.07;100077.72;5133479;27;20450;-70
2022/08/04 03:25:41;;;;;;;5.73;3.80;;;;;;;20.62;75.99;100071.69;5135867;27;20465;-70
2022/08/04 03:28:24;;;;;;;4.97;3.23;;;;;;;20.63;76.70;100070.63;5142914;27;20434;-70
2022/08/04 03:31:04;;;;;;;6.73;3.20;;;;;;;20.58;77.18;100075.84;5124928;27;20549;-72
2022/08/04 03:33:42;;;;;;;11.30;4.13;;;;;;;20.61;77.63;100075.41;5121584;28;20422;-72
2022/08/04 03:36:37;;;;;;;6.13;3.77;;;;;;;20.71;76.83;100061.44;5120618;28;20501;-73
2022/08/04 03:39:27;;;;;;;8.10;4.07;;;;;;;20.66;76.73;100062.06;5121649;28;20497;-73
2022/08/04 03:42:14;;;;;;;5.70;3.07;;;;;;;20.71;76.56;100066.03;5120406;28;20543;-73
2022/08/04 03:45:15;;;;;;;10.50;3.63;;;;;;;20.73;76.83;100070.22;5120649;28;20939;-71
2022/08/04 03:48:01;;;;;;;7.20;3.30;;;;;;;20.61;77.58;100058.28;5120084;28;20526;-72
2022/08/04 03:53:46;;;;;;;7.40;3.10;;;;;;;20.63;77.68;100054.34;5118684;28;20454;-72
2022/08/04 03:56:32;;;;;;;6.87;3.60;;;;;;;20.62;77.58;100052.69;5139881;27;20465;-72
2022/08/04 03:59:43;;;;;;;7.33;4.10;;;;;;;20.75;76.86;100057.25;5130704;27;20954;-73
2022/08/04 04:02:45;;;;;;;6.07;3.60;;;;;;;20.74;77.53;100046.59;5077833;27;20492;-73
2022/08/04 04:05:39;;;;;;;10.40;3.97;;;;;;;20.81;77.05;100056.38;5140658;27;20666;-72
2022/08/04 04:08:32;;;;;;;8.90;3.90;;;;;;;20.86;76.99;100042.16;5100954;28;20442;-73
2022/08/04 04:11:38;;;;;;;6.37;4.03;;;;;;;21.02;76.62;100055.31;5113292;27;20477;-72
2022/08/04 04:14:43;;;;;;;8.10;4.33;;;;;;;21.28;75.88;100058.94;5121783;27;20479;-74
2022/08/04 04:17:28;;;;;;;8.97;4.60;;;;;;;21.44;74.35;100054.94;5097776;28;20478;-73
2022/08/04 04:20:07;;;;;;;7.87;3.83;;;;;;;21.44;74.34;100053.03;5120417;27;20472;-73
2022/08/04 04:22:50;;;;;;;9.70;4.37;;;;;;;21.76;73.49;100060.44;5121685;27;20462;-73
2022/08/04 04:25:29;;;;;;;7.97;4.60;;;;;;;21.95;72.46;100053.19;5121356;27;20466;-73
2022/08/04 04:28:11;;;;;;;10.30;5.13;;;;;;;21.85;72.72;100056.38;5121069;27;20450;-71
2022/08/04 04:30:46;;;;;;;6.77;4.10;;;;;;;22.02;72.24;100053.97;5113619;27;20466;-73
2022/08/04 04:33:29;;;;;;;11.07;4.20;;;;;;;23.10;69.36;100051.94;5127969;27;20452;-73
2022/08/04 04:36:03;;;;;;;8.00;3.53;;;;;;;23.96;65.05;100052.69;5134795;27;20472;-72
2022/08/04 04:38:48;;;;;;;7.53;3.53;;;;;;;24.76;61.74;100051.34;5119991;27;20508;-71
2022/08/04 04:41:32;;;;;;;6.70;3.40;;;;;;;25.26;59.51;100049.13;5119220;27;20473;-72
2022/08/04 04:44:49;;;;;;;6.20;4.60;;;;;;;24.89;59.95;100043.97;5138883;27;20445;-72
2022/08/04 04:47:27;;;;;;;7.27;4.03;;;;;;;24.19;61.96;100046.44;5055063;28;20492;-72
2022/08/04 04:49:59;;;;;;;10.30;4.00;;;;;;;23.97;63.03;100040.69;5100212;27;20471;-72
2022/08/04 04:52:30;;;;;;;7.97;3.93;;;;;;;23.63;64.45;100040.34;5116078;27;20485;-72
2022/08/04 04:55:03;;;;;;;8.10;3.73;;;;;;;23.10;66.52;100038.31;5131221;27;20433;-72
2022/08/04 04:57:34;;;;;;;16.50;4.27;;;;;;;23.17;66.66;100041.78;5137163;27;20499;-72
2022/08/04 05:00:04;;;;;;;6.53;3.87;;;;;;;22.90;68.02;100033.91;5136999;27;20622;-72
2022/08/04 05:02:52;;;;;;;6.13;3.37;;;;;;;22.95;68.27;100041.41;5132050;27;20482;-72
2022/08/04 05:05:28;;;;;;;8.23;3.70;;;;;;;23.42;66.91;100038.97;5133290;27;20480;-72
2022/08/04 05:08:21;;;;;;;8.60;3.97;;;;;;;23.80;65.35;100039.66;5138904;27;20542;-72
2022/08/04 05:10:56;;;;;;;7.07;4.37;;;;;;;23.85;64.73;100031.66;5085911;27;20473;-73
2022/08/04 05:13:34;;;;;;;9.67;4.70;;;;;;;23.65;65.21;100038.22;5117012;27;20497;-73
2022/08/04 05:16:06;;;;;;;7.50;4.10;;;;;;;23.83;64.93;100033.78;5117462;27;20673;-72
2022/08/04 05:18:37;;;;;;;6.57;4.47;;;;;;;23.74;65.43;100032.44;5123527;27;20957;-72
2022/08/04 05:21:20;;;;;;;5.70;4.27;;;;;;;24.15;63.63;100030.78;5123310;27;20859;-71
2022/08/04 05:23:49;;;;;;;9.10;3.80;;;;;;;24.38;62.79;100036.25;5119370;28;20438;-70
2022/08/04 05:26:19;;;;;;;12.97;4.60;;;;;;;24.10;63.75;100027.91;5113596;27;20470;-71
2022/08/04 05:28:51;;;;;;;7.20;4.00;;;;;;;24.14;63.52;100031.84;5118738;28;20434;-72
2022/08/04 05:31:21;;;;;;;7.23;4.50;;;;;;;24.07;64.12;100031.94;5124985;27;20469;-74
2022/08/04 05:33:52;;;;;;;6.60;4.60;;;;;;;24.50;62.43;100028.06;5119571;27;20476;-73
2022/08/04 05:36:21;;;;;;;6.87;4.60;;;;;;;24.80;61.26;100033.38;5120631;27;20572;-73
2022/08/04 05:38:52;;;;;;;7.20;4.73;;;;;;;24.76;61.43;100025.94;5121189;27;20487;-74
2022/08/04 05:41:19;;;;;;;9.23;4.33;;;;;;;25.04;60.82;100030.63;5117648;28;20474;-72
2022/08/04 05:43:47;;;;;;;8.40;4.10;;;;;;;25.37;59.49;100031.88;5117834;28;20990;-73
2022/08/04 05:46:15;;;;;;;5.87;4.40;;;;;;;24.78;61.27;100027.34;5117938;28;20466;-72
2022/08/04 05:48:43;;;;;;;6.53;4.23;;;;;;;25.04;60.46;100021.59;5118653;28;20441;-71
2022/08/04 05:51:12;;;;;;;5.43;3.80;;;;;;;25.79;58.16;100031.53;5128651;28;20804;-72
2022/08/04 05:53:41;;;;;;;7.23;4.77;;;;;;;26.12;56.66;100018.97;5128169;28;20437;-73
2022/08/04 05:56:09;;;;;;;5.27;3.60;;;;;;;25.90;56.45;100021.59;5128716;28;20481;-73
2022/08/04 05:58:36;;;;;;;9.07;3.83;;;;;;;25.40;58.23;100023.16;5124331;28;20816;-73
2022/08/04 06:01:03;;;;;;;10.97;5.53;;;;;;;25.41;58.48;100019.34;5105487;28;20523;-71
2022/08/04 06:03:31;;;;;;;8.57;5.10;;;;;;;24.97;59.86;100016.25;5132999;28;20467;-69
2022/08/04 06:05:58;;;;;;;7.10;4.57;;;;;;;24.98;59.89;100020.63;5136271;28;20489;-72
2022/08/04 06:08:27;;;;;;;6.63;4.07;;;;;;;25.09;59.71;100016.22;5128863;27;20506;-71
2022/08/04 06:10:55;;;;;;;6.10;3.73;;;;;;;25.36;59.01;100022.84;5122524;27;20538;-71
2022/08/04 06:13:31;;;;;;;10.83;4.17;;;;;;;26.07;56.50;100008.75;5122880;27;20448;-72
2022/08/04 06:15:58;;;;;;;18.77;4.87;;;;;;;26.48;55.76;100014.88;5115804;27;20500;-72
2022/08/04 06:18:26;;;;;;;8.13;4.23;;;;;;;27.60;52.12;100014.69;5120318;28;21425;-72
2022/08/04 06:20:54;;;;;;;9.03;3.97;;;;;;;27.41;51.75;100005.97;5120534;27;20519;-72
2022/08/04 06:23:23;;;;;;;9.90;5.00;;;;;;;27.31;51.78;100014.09;5114424;28;20434;-72
2022/08/04 06:25:54;;;;;;;6.57;4.33;;;;;;;27.13;53.15;100008.91;5118128;27;20736;-72
2022/08/04 06:28:21;;;;;;;5.70;4.00;;;;;;;27.38;52.37;100011.16;5117123;27;20630;-72
2022/08/04 06:30:50;;;;;;;5.97;3.50;;;;;;;28.43;49.89;100013.44;5122327;27;20546;-72
2022/08/04 06:33:26;;;;;;;6.40;3.80;;;;;;;28.76;48.57;100005.16;5128365;27;20491;-72
2022/08/04 06:35:54;;;;;;;9.10;3.83;;;;;;;29.20;47.03;100024.91;5120153;27;20496;-72
2022/08/04 06:38:21;;;;;;;10.03;4.20;;;;;;;27.22;52.22;100010.09;5120630;28;20529;-72
2022/08/04 06:40:48;;;;;;;8.10;3.50;;;;;;;26.48;54.58;100005.84;5118335;27;20481;-72
2022/08/04 06:43:17;;;;;;;7.83;4.00;;;;;;;26.26;55.71;100005.78;5125109;27;21035;-71
2022/08/04 06:45:46;;;;;;;8.33;4.37;;;;;;;26.09;56.41;100008.50;5121671;28;20552;-71
2022/08/04 06:48:15;;;;;;;5.27;3.63;;;;;;;27.30;53.79;100008.84;5123118;27;20486;-71
2022/08/04 06:50:44;;;;;;;5.20;3.97;;;;;;;28.34;50.56;100012.28;5134875;27;20469;-71
2022/08/04 06:53:11;;;;;;;5.17;3.50;;;;;;;30.11;45.67;100008.00;5142759;27;20475;-71
2022/08/04 06:55:39;;;;;;;4.90;3.63;;;;;;;30.71;44.08;100002.66;5140602;27;20502;-71
2022/08/04 06:58:08;;;;;;;6.03;4.00;;;;;;;30.56;43.34;100000.78;5119087;27;20445;-71
2022/08/04 07:00:36;;;;;;;4.87;3.40;;;;;;;31.16;40.98;100001.69;5118915;28;20497;-71
2022/08/04 07:03:04;;;;;;;7.50;3.47;;;;;;;31.97;40.25;100004.19;5121026;28;20436;-71
2022/08/04 07:05:31;;;;;;;8.73;3.60;;;;;;;32.53;38.51;99999.28;5119351;27;20480;-72
2022/08/04 07:07:58;;;;;;;7.90;3.83;;;;;;;32.83;37.98;99995.38;5121221;28;20442;-72
2022/08/04 07:10:25;;;;;;;4.23;3.20;;;;;;;33.36;36.99;100002.72;5120683;28;20574;-74
2022/08/04 07:12:52;;;;;;;6.23;3.20;;;;;;;33.18;37.55;99996.06;5120627;28;20511;-74
2022/08/04 07:15:19;;;;;;;9.43;3.50;;;;;;;33.95;35.51;99992.94;5120194;28;20440;-72
2022/08/04 07:17:47;;;;;;;4.80;3.00;;;;;;;34.04;36.13;99995.03;5119835;28;21226;-72
2022/08/04 07:20:14;;;;;;;5.00;3.20;;;;;;;34.55;35.47;99987.72;5098514;28;20487;-72
2022/08/04 07:22:42;;;;;;;5.60;2.90;;;;;;;35.22;34.41;99982.47;5117372;28;20442;-73
2022/08/04 07:25:11;;;;;;;5.33;3.57;;;;;;;35.30;34.15;99985.69;5119879;28;20511;-72
2022/08/04 07:27:38;;;;;;;4.37;3.40;;;;;;;35.28;33.35;99988.75;5119550;28;20446;-72
2022/08/04 07:30:06;;;;;;;6.67;3.47;;;;;;;34.58;34.84;99985.16;5119458;28;20450;-73
2022/08/04 07:32:33;;;;;;;8.87;3.30;;;;;;;34.59;35.42;99974.91;5119672;28;20454;-72
2022/08/04 07:35:03;;;;;;;7.87;3.30;;;;;;;33.38;37.47;99983.84;5117304;28;21116;-72
2022/08/04 07:37:30;;;;;;;5.00;2.77;;;;;;;34.19;35.41;99983.69;5118425;28;20569;-72
2022/08/04 07:39:56;;;;;;;7.40;3.20;;;;;;;35.53;33.46;99983.75;5119535;28;20462;-72
2022/08/04 07:42:23;;;;;;;6.30;3.70;;;;;;;35.55;32.73;99989.81;5119449;28;20478;-72
2022/08/04 07:44:50;;;;;;;3.70;2.70;;;;;;;35.54;33.45;99982.63;5119982;28;20443;-73
2022/08/04 07:47:17;;;;;;;4.53;2.37;;;;;;;36.23;31.43;99992.59;5119068;28;21117;-73
2022/08/04 07:49:44;;;;;;;6.43;2.90;;;;;;;35.91;32.75;99989.78;5119345;28;20426;-73
2022/08/04 07:52:12;;;;;;;9.40;2.90;;;;;;;36.78;30.72;99991.41;5115792;28;20478;-73
2022/08/04 07:54:40;;;;;;;3.60;2.70;;;;;;;37.95;28.93;99984.16;5119893;28;20917;-73
2022/08/04 07:57:07;;;;;;;4.03;2.50;;;;;;;38.29;28.99;99988.00;5119711;28;20485;-72
2022/08/04 07:59:35;;;;;;;4.40;2.63;;;;;;;38.91;27.17;99983.78;5120123;28;20467;-71
2022/08/04 08:02:03;;;;;;;4.73;2.70;;;;;;;37.51;29.47;99980.53;5117914;28;20491;-71
2022/08/04 08:04:31;;;;;;;3.97;2.50;;;;;;;37.18;30.31;99992.16;5119289;28;20436;-71
2022/08/04 08:06:58;;;;;;;7.63;2.40;;;;;;;37.56;29.10;99977.59;5119465;28;20491;-72
2022/08/04 08:09:26;;;;;;;3.93;2.73;;;;;;;37.79;29.44;99989.41;5120040;28;20449;-72
2022/08/04 08:11:54;;;;;;;6.30;2.63;;;;;;;38.48;29.07;99981.22;5118429;28;20481;-73
2022/08/04 08:14:21;;;;;;;3.60;2.70;;;;;;;39.20;27.29;99970.97;5119795;28;20467;-73
2022/08/04 08:16:48;;;;;;;5.37;3.10;;;;;;;38.17;28.10;99969.16;5117096;28;20474;-73
2022/08/04 08:19:15;;;;;;;7.50;3.27;;;;;;;38.76;28.25;99971.22;5119137;28;20497;-73
2022/08/04 08:21:46;;;;;;;4.63;2.93;;;;;;;38.99;27.60;99968.97;5117021;28;21000;-74
2022/08/04 08:24:13;;;;;;;6.37;3.20;;;;;;;38.93;28.93;99970.28;5120141;28;20433;-74
2022/08/04 08:26:48;;;;;;;5.90;2.80;;;;;;;39.73;27.22;99963.78;5116726;28;20484;-74
2022/08/04 08:29:16;;;;;;;2.43;2.13;;;;;;;40.58;24.74;99960.72;5119006;28;20444;-74
2022/08/04 08:31:43;;;;;;;7.13;2.50;;;;;;;40.64;24.75;99967.69;5117268;28;20474;-74
2022/08/04 08:34:11;;;;;;;6.50;2.53;;;;;;;40.81;25.18;99966.69;5116704;28;20449;-75
2022/08/04 08:36:39;;;;;;;3.20;2.70;;;;;;;40.14;26.07;99961.25;5117540;28;20569;-70
2022/08/04 08:39:11;;;;;;;4.43;2.57;;;;;;;38.92;28.43;99962.25;5119279;28;20483;-66
2022/08/04 08:42:26;;;;;;;5.47;2.50;;;;;;;39.74;26.66;99961.81;5116968;28;20910;-67
2022/08/04 08:45:40;;;;;;;9.30;3.13;;;;;;;40.32;25.63;99959.03;5015134;28;20482;-65
2022/08/04 08:48:19;;;;;;;4.50;2.50;;;;;;;39.53;27.41;99956.22;4955301;28;20494;-66
2022/08/04 08:51:10;;;;;;;4.63;2.80;;;;;;;40.91;25.04;99954.19;5013956;28;21042;-66
2022/08/04 08:53:59;;;;;;;3.80;2.70;;;;;;;40.58;24.10;99955.13;5015293;28;20446;-67
2022/08/04 08:56:32;;;;;;;26.73;3.63;;;;;;;40.26;24.74;99952.00;5014575;28;20885;-67
2022/08/04 09:02:02;;;;;;;4.40;2.50;;;;;;;40.11;26.32;99950.72;5066975;27;1286017;-68
2022/08/04 09:04:42;;;;;;;6.93;3.07;;;;;;;41.47;20.72;99948.66;5082997;28;20451;-66
2022/08/04 09:07:31;;;;;;;3.40;2.90;;;;;;;40.76;23.65;99955.66;5093934;28;20479;-66
2022/08/04 09:10:06;;;;;;;2.83;2.57;;;;;;;40.91;20.99;99963.41;5094471;28;20462;-68
2022/08/04 09:12:37;;;;;;;3.17;2.87;;;;;;;39.77;21.24;99954.69;5094959;28;21038;-67
2022/08/04 09:15:08;;;;;;;5.37;2.90;;;;;;;39.12;21.68;99949.50;5095475;28;20889;-67
2022/08/04 09:17:41;;;;;;;5.40;2.87;;;;;;;39.46;21.92;99956.78;5085551;28;20463;-67
2022/08/04 09:20:15;;;;;;;2.70;2.50;;;;;;;40.34;20.92;99959.50;5074118;28;20479;-68
2022/08/04 09:22:45;;;;;;;3.20;2.73;;;;;;;40.18;22.13;99952.97;5076740;28;20449;-68
2022/08/04 09:25:17;;;;;;;4.80;2.90;;;;;;;41.27;18.81;99963.69;5082683;28;20452;-68
2022/08/04 09:27:51;;;;;;;2.97;2.50;;;;;;;40.05;21.54;99972.53;5103220;28;20444;-67
2022/08/04 09:30:19;;;;;;;3.80;2.20;;;;;;;39.57;21.83;99964.78;5100904;28;20506;-67
2022/08/04 09:32:57;;;;;;;3.87;2.77;;;;;;;39.45;21.93;99965.50;5104172;28;20575;-67
2022/08/04 09:35:34;;;;;;;2.70;2.50;;;;;;;39.32;21.60;99959.03;5074499;28;20510;-67
2022/08/04 09:38:08;;;;;;;5.07;3.00;;;;;;;39.85;21.79;99956.59;5080835;28;20591;-67
2022/08/04 09:40:41;;;;;;;5.13;2.70;;;;;;;38.73;21.89;99971.06;5088304;28;20487;-67
2022/08/04 09:43:15;;;;;;;2.83;2.63;;;;;;;39.45;22.79;99951.53;5089985;28;20437;-67
2022/08/04 09:45:48;;;;;;;3.00;2.70;;;;;;;39.73;22.47;99960.97;5074150;28;20483;-67
2022/08/04 09:48:22;;;;;;;4.47;2.43;;;;;;;39.52;22.19;99952.63;5072926;28;20478;-67
2022/08/04 09:50:54;;;;;;;5.73;2.53;;;;;;;40.19;21.94;99957.38;5092490;28;20513;-68
2022/08/04 09:53:31;;;;;;;2.60;2.37;;;;;;;41.69;20.85;99961.34;5084566;28;20425;-67
2022/08/04 09:56:02;;;;;;;4.13;2.80;;;;;;;40.90;21.39;99956.13;5075841;28;21157;-67
2022/08/04 09:58:52;;;;;;;3.10;2.50;;;;;;;41.12;21.31;99962.44;5074121;28;20571;-68
2022/08/04 10:01:21;;;;;;;5.23;3.00;;;;;;;42.19;19.77;99961.06;5070138;28;20480;-67
2022/08/04 10:03:52;;;;;;;3.37;2.70;;;;;;;41.27;21.31;99953.28;5074322;28;20468;-67
2022/08/04 10:06:36;;;;;;;6.60;2.53;;;;;;;40.42;21.93;99961.41;5087173;28;20589;-68
2022/08/04 10:09:14;;;;;;;3.70;2.37;;;;;;;41.04;21.42;99958.56;5093204;28;20424;-67
2022/08/04 10:11:55;;;;;;;4.93;2.70;;;;;;;40.54;22.79;99955.00;5088335;28;21279;-67
2022/08/04 10:14:37;;;;;;;5.90;2.40;;;;;;;40.58;22.58;99953.13;5080781;28;20506;-67
2022/08/04 10:17:15;;;;;;;9.37;2.70;;;;;;;40.64;21.10;99951.72;5077593;28;20571;-67
2022/08/04 10:19:46;;;;;;;3.30;2.60;;;;;;;40.12;22.31;99954.34;5075057;28;21071;-67
2022/08/04 10:22:18;;;;;;;3.50;2.37;;;;;;;41.62;19.89;99947.06;5064125;28;20476;-67
2022/08/04 10:24:56;;;;;;;3.57;2.50;;;;;;;40.16;21.33;99946.91;5059649;28;20993;-66
2022/08/04 10:27:27;;;;;;;5.63;2.67;;;;;;;40.05;22.69;99933.34;5078814;28;20489;-67
2022/08/04 10:29:57;;;;;;;5.27;2.47;;;;;;;40.00;22.06;99943.94;5086056;28;20663;-66
2022/08/04 10:32:26;;;;;;;6.10;2.83;;;;;;;40.84;21.72;99938.75;5084495;28;21014;-66
2022/08/04 10:35:05;;;;;;;2.97;2.40;;;;;;;39.70;22.52;99936.47;5080376;28;20441;-66
2022/08/04 10:37:36;;;;;;;3.07;2.20;;;;;;;40.02;23.51;99931.22;5088011;28;20480;-66
2022/08/04 10:42:56;;;;;;;6.60;2.30;;;;;;;40.44;21.70;99939.47;5089654;28;20463;-66
2022/08/04 10:45:26;;;;;;;2.50;1.73;;;;;;;41.70;20.48;99932.09;5097947;28;20473;-66
2022/08/04 10:47:59;;;;;;;2.43;2.10;;;;;;;41.41;20.67;99938.88;5098328;28;20450;-67
2022/08/04 10:50:28;;;;;;;3.00;2.33;;;;;;;40.64;21.18;99929.31;5099588;28;20814;-67
2022/08/04 10:52:59;;;;;;;4.93;2.10;;;;;;;40.52;20.44;99932.13;5099425;28;20433;-67
2022/08/04 10:55:31;;;;;;;2.57;2.30;;;;;;;40.47;20.90;99929.56;5099510;28;20435;-67
2022/08/04 10:58:01;;;;;;;5.30;2.57;;;;;;;40.03;22.27;99926.44;5079589;28;20463;-67
2022/08/04 11:00:29;;;;;;;2.90;2.00;;;;;;;41.00;20.78;99924.81;5082217;28;20480;-65
2022/08/04 11:03:01;;;;;;;2.23;2.10;;;;;;;41.12;19.76;99915.56;5099553;28;20449;-66
2022/08/04 11:05:33;;;;;;;3.00;2.30;;;;;;;41.76;19.89;99913.00;5080076;28;20473;-67
2022/08/04 11:08:03;;;;;;;2.50;1.67;;;;;;;41.22;19.74;99925.47;5079284;28;20444;-67
2022/08/04 11:10:35;;;;;;;1.70;1.60;;;;;;;41.19;19.69;99915.75;5099360;28;20543;-67
2022/08/04 11:13:05;;;;;;;2.17;1.70;;;;;;;39.76;20.55;99914.72;5096334;28;21004;-67
2022/08/04 11:15:38;;;;;;;2.50;1.90;;;;;;;39.97;20.58;99917.47;5078146;28;20481;-66
2022/08/04 11:18:07;;;;;;;4.23;1.80;;;;;;;40.48;20.44;99917.16;5077662;28;20464;-66
2022/08/04 11:20:41;;;;;;;1.80;1.50;;;;;;;39.50;20.12;99920.56;5093510;28;20895;-66
2022/08/04 11:23:09;;;;;;;2.00;1.77;;;;;;;39.89;20.67;99923.94;5081173;28;20505;-66
2022/08/04 11:25:48;;;;;;;3.10;1.97;;;;;;;40.54;19.95;99920.53;5099114;28;20482;-66
2022/08/04 11:28:22;;;;;;;2.67;1.60;;;;;;;40.91;19.81;99918.53;5099483;28;20439;-67
2022/08/04 11:30:53;;;;;;;2.23;1.97;;;;;;;40.51;19.73;99916.47;5097621;28;20599;-67
2022/08/04 11:33:31;;;;;;;5.90;1.90;;;;;;;39.85;20.90;99918.22;5097002;28;20457;-66
2022/08/04 11:36:03;;;;;;;2.30;1.70;;;;;;;40.13;20.44;99926.00;5098547;28;20477;-66
2022/08/04 11:38:35;;;;;;;2.10;1.73;;;;;;;40.27;20.08;99922.84;5098333;28;20442;-66
2022/08/04 11:41:09;;;;;;;2.97;2.10;;;;;;;39.82;20.64;99913.31;5098503;28;20508;-66
2022/08/04 11:43:40;;;;;;;3.20;2.50;;;;;;;39.95;21.70;99922.59;5098535;28;20451;-66
2022/08/04 11:46:10;;;;;;;2.20;1.70;;;;;;;40.24;20.10;99920.75;5096543;28;20487;-66
2022/08/04 11:48:41;;;;;;;2.30;1.73;;;;;;;39.76;21.29;99917.50;5098769;28;20427;-67
2022/08/04 11:51:10;;;;;;;2.33;1.80;;;;;;;40.01;20.26;99921.19;5097476;28;20498;-66
2022/08/04 11:53:38;;;;;;;3.20;1.90;;;;;;;41.35;19.66;99920.66;5097388;28;20451;-66
2022/08/04 11:56:08;;;;;;;2.97;1.80;;;;;;;40.09;19.65;99917.47;5093858;28;20514;-67
2022/08/04 11:58:35;;;;;;;4.40;1.63;;;;;;;38.78;21.35;99920.59;5090102;28;20512;-66
2022/08/04 12:01:09;;;;;;;2.03;1.80;;;;;;;38.30;22.39;99917.06;5096005;28;20472;-66
2022/08/04 12:03:39;;;;;;;6.93;2.17;;;;;;;38.89;22.42;99924.63;5098975;28;20486;-66
2022/08/04 12:06:17;;;;;;;3.23;2.20;;;;;;;39.97;20.56;99922.25;5098166;28;20480;-66
2022/08/04 12:08:56;;;;;;;4.33;1.87;;;;;;;40.15;20.82;99920.84;5091006;28;20522;-67
2022/08/04 12:11:33;;;;;;;3.20;2.10;;;;;;;39.58;19.92;99924.44;5089315;28;20493;-67
2022/08/04 12:14:08;;;;;;;4.00;2.20;;;;;;;39.80;19.49;99917.63;5098825;28;20426;-66